Time;durP1;ratioP1;P1;durP2;ratioP2;P2;SDS_P1;SDS_P2;PMS_P1;PMS_P2;Temp;Humidity;BMP_temperature;BMP_pressure;BME280_temperature;BME280_humidity;BME280_pressure;Samples;Min_cycle;Max_cycle;Signal;HPM_P1;HPM_P2
2023/06/22 00:00:11;;;;;;;10.73;6.95;;;;;;;19.92;67.46;102041.41;7392021;19;20018;-63
2023/06/22 00:02:39;;;;;;;10.38;7.05;;;;;;;20.03;67.25;102043.06;7390057;19;20074;-64
2023/06/22 00:05:07;;;;;;;10.38;6.53;;;;;;;20.25;66.00;102044.59;7391723;19;20018;-64
2023/06/22 00:07:34;;;;;;;10.25;6.80;;;;;;;20.33;65.87;102042.03;7389407;19;20018;-74
2023/06/22 00:10:01;;;;;;;10.18;6.28;;;;;;;20.33;66.10;102044.72;7391510;19;20043;-75
2023/06/22 00:12:28;;;;;;;9.20;6.45;;;;;;;20.33;66.05;102042.88;7391150;19;20516;-73
2023/06/22 00:14:56;;;;;;;10.25;6.82;;;;;;;20.33;66.21;102047.41;7390735;19;20019;-72
2023/06/22 00:17:23;;;;;;;10.80;7.88;;;;;;;20.01;66.70;102050.44;7387666;19;20484;-73
2023/06/22 00:19:53;;;;;;;11.45;7.18;;;;;;;19.73;68.04;102047.63;7391341;19;20018;-72
2023/06/22 00:22:28;;;;;;;11.65;7.20;;;;;;;19.93;67.55;102048.47;7390656;19;20026;-71
2023/06/22 00:24:56;;;;;;;10.75;7.10;;;;;;;20.02;66.95;102041.38;7389572;19;20011;-71
2023/06/22 00:27:24;;;;;;;10.60;7.18;;;;;;;20.09;66.62;102051.41;7387586;19;20011;-72
2023/06/22 00:29:51;;;;;;;10.57;6.78;;;;;;;20.17;66.45;102050.69;7390938;19;20025;-71
2023/06/22 00:32:19;;;;;;;10.23;6.90;;;;;;;20.16;66.03;102047.16;7390831;19;20048;-72
2023/06/22 00:34:46;;;;;;;9.57;6.80;;;;;;;20.11;66.01;102045.88;7389338;19;20011;-72
2023/06/22 00:37:13;;;;;;;10.40;7.53;;;;;;;20.07;66.18;102047.16;7388560;19;20031;-63
2023/06/22 00:39:41;;;;;;;11.00;7.72;;;;;;;20.11;66.21;102044.06;7389485;19;20026;-69
2023/06/22 00:42:08;;;;;;;11.18;6.88;;;;;;;20.13;66.19;102044.75;7388086;19;20019;-71
2023/06/22 00:44:36;;;;;;;11.57;7.95;;;;;;;20.13;66.17;102046.59;7390714;19;20047;-72
2023/06/22 00:47:06;;;;;;;10.27;6.97;;;;;;;20.11;66.61;102040.50;7387090;19;20014;-74
2023/06/22 00:49:33;;;;;;;11.23;7.57;;;;;;;20.12;66.20;102042.22;7389908;19;20082;-74
2023/06/22 00:52:02;;;;;;;11.30;6.93;;;;;;;20.13;66.38;102044.75;7389886;19;20523;-74
2023/06/22 00:54:29;;;;;;;11.82;8.00;;;;;;;20.14;66.51;102040.22;7389271;19;20029;-75
2023/06/22 01:13:27;;;;;;;12.00;8.00;;;;;;;19.88;67.18;102023.81;7390035;19;20399;-68
2023/06/22 01:16:05;;;;;;;11.07;7.43;;;;;;;19.86;67.05;102036.56;7387990;19;20018;-67
2023/06/22 01:18:40;;;;;;;13.30;8.63;;;;;;;19.96;66.58;102038.28;7387262;19;20018;-67
2023/06/22 01:21:11;;;;;;;13.43;9.48;;;;;;;19.61;67.73;102033.44;7389711;19;20040;-67
2023/06/22 01:24:18;;;;;;;11.05;8.32;;;;;;;19.43;68.91;102038.66;7389133;19;20022;-64
2023/06/22 01:27:21;;;;;;;11.40;8.73;;;;;;;19.20;69.65;102034.50;7388449;19;20022;-64
2023/06/22 01:30:04;;;;;;;13.32;9.27;;;;;;;19.23;69.75;102031.53;7387654;19;20014;-65
2023/06/22 01:32:34;;;;;;;12.15;8.55;;;;;;;19.49;68.73;102032.69;7389121;19;20081;-71
2023/06/22 01:35:05;;;;;;;12.70;8.35;;;;;;;19.59;68.09;102035.41;7386984;19;20496;-66
2023/06/22 01:37:35;;;;;;;12.77;9.45;;;;;;;19.66;68.42;102030.38;7387049;19;20018;-66
2023/06/22 01:40:09;;;;;;;13.18;9.00;;;;;;;19.41;69.46;102034.41;7388396;19;20022;-66
2023/06/22 01:42:38;;;;;;;13.32;9.50;;;;;;;19.28;69.40;102025.75;7388823;19;20040;-66
2023/06/22 01:45:07;;;;;;;12.30;9.27;;;;;;;19.40;68.81;102024.66;7388637;19;20012;-64
2023/06/22 01:47:34;;;;;;;11.88;9.00;;;;;;;19.43;68.94;102011.78;7386837;19;20033;-64
2023/06/22 01:50:01;;;;;;;11.02;8.55;;;;;;;19.44;69.03;102018.00;7388766;19;20011;-64
2023/06/22 01:52:29;;;;;;;12.95;9.65;;;;;;;19.41;68.91;102011.06;7390868;19;20011;-64
2023/06/22 01:54:57;;;;;;;12.18;9.73;;;;;;;19.41;68.93;101999.47;7392035;19;20085;-64
2023/06/22 01:57:25;;;;;;;13.55;8.98;;;;;;;19.47;68.56;101997.06;7393720;19;20033;-64
2023/06/22 02:00:09;;;;;;;14.27;9.80;;;;;;;19.52;68.57;101995.81;7395279;19;20019;-64
2023/06/22 02:02:44;;;;;;;15.68;11.75;;;;;;;19.27;69.13;102010.63;7394715;19;20015;-64
2023/06/22 02:05:16;;;;;;;13.07;10.55;;;;;;;19.06;69.72;102014.25;7395346;19;20039;-64
2023/06/22 02:07:52;;;;;;;12.77;10.45;;;;;;;19.02;70.71;102007.47;7391188;19;20018;-64
2023/06/22 02:10:22;;;;;;;13.60;10.35;;;;;;;19.04;70.40;102012.69;7395295;19;20500;-63
2023/06/22 02:12:51;;;;;;;14.77;10.15;;;;;;;18.88;70.78;102011.38;7393838;19;20026;-63
2023/06/22 02:15:19;;;;;;;16.00;11.52;;;;;;;18.80;70.97;102016.56;7392869;19;20502;-63
2023/06/22 02:17:47;;;;;;;13.95;11.35;;;;;;;18.72;71.20;102019.94;7393384;19;20090;-64
2023/06/22 02:20:15;;;;;;;13.10;10.73;;;;;;;18.75;71.08;102014.31;7395278;19;20025;-64
2023/06/22 02:22:42;;;;;;;14.73;10.48;;;;;;;18.95;70.69;102014.38;7393670;19;20014;-64
2023/06/22 02:25:09;;;;;;;13.60;11.00;;;;;;;19.26;69.62;102009.75;7394063;19;20023;-67
2023/06/22 02:27:40;;;;;;;13.50;10.07;;;;;;;19.35;69.06;102005.41;7392768;19;20022;-68
2023/06/22 02:30:09;;;;;;;15.15;11.35;;;;;;;19.08;69.99;102019.47;7393244;19;20079;-68
2023/06/22 02:32:36;;;;;;;14.88;11.43;;;;;;;18.81;70.68;102017.41;7395232;19;20363;-68
2023/06/22 02:35:04;;;;;;;16.88;12.30;;;;;;;18.74;71.01;102028.72;7392629;19;20135;-68
2023/06/22 02:37:32;;;;;;;14.63;11.07;;;;;;;18.68;71.52;102023.84;7391038;19;20022;-68
2023/06/22 02:39:59;;;;;;;15.80;12.52;;;;;;;18.71;71.48;102022.75;7394142;19;20101;-68
2023/06/22 02:42:27;;;;;;;14.75;11.80;;;;;;;18.71;71.19;102026.28;7392588;19;20085;-68
2023/06/22 02:44:54;;;;;;;16.48;12.35;;;;;;;18.70;71.36;102021.91;7394220;19;20015;-68
2023/06/22 02:47:22;;;;;;;14.80;12.02;;;;;;;18.95;70.15;102017.91;7391802;19;20098;-68
2023/06/22 02:49:49;;;;;;;17.83;12.75;;;;;;;18.97;69.98;102013.25;7393758;19;20010;-68
2023/06/22 02:52:16;;;;;;;13.57;10.82;;;;;;;19.10;69.63;102022.88;7392449;19;20480;-67
2023/06/22 02:54:45;;;;;;;14.13;11.88;;;;;;;19.14;69.54;102016.25;7393288;19;20052;-68
2023/06/22 02:57:13;;;;;;;15.60;11.60;;;;;;;19.11;69.43;102024.56;7390309;19;20512;-69
2023/06/22 03:02:42;;;;;;;16.77;12.25;;;;;;;18.98;69.64;102027.53;7393871;19;20058;-77
2023/06/22 03:05:37;;;;;;;15.15;12.40;;;;;;;18.97;70.20;102024.00;7392246;19;20111;-77
2023/06/22 03:08:05;;;;;;;14.98;11.60;;;;;;;19.03;69.90;102017.22;7391293;19;20038;-75
2023/06/22 03:10:32;;;;;;;17.13;13.13;;;;;;;19.07;69.77;102023.16;7393744;19;20031;-74
2023/06/22 03:12:59;;;;;;;15.15;12.02;;;;;;;19.16;69.45;102033.94;7393127;19;20018;-73
2023/06/22 03:15:29;;;;;;;15.93;12.60;;;;;;;19.00;69.97;102030.91;7391111;19;20018;-72
2023/06/22 03:17:56;;;;;;;15.25;11.50;;;;;;;19.00;70.26;102033.59;7391429;19;20018;-68
2023/06/22 03:20:25;;;;;;;14.90;11.82;;;;;;;19.00;69.82;102033.59;7392522;19;20026;-68
2023/06/22 03:22:52;;;;;;;15.82;12.45;;;;;;;19.01;69.70;102029.09;7393281;19;20015;-66
2023/06/22 03:25:20;;;;;;;15.13;12.70;;;;;;;19.05;69.81;102035.88;7392665;19;20041;-73
2023/06/22 03:27:48;;;;;;;16.73;13.02;;;;;;;19.08;69.42;102019.47;7390768;19;20022;-72
2023/06/22 03:30:15;;;;;;;16.92;13.77;;;;;;;19.01;69.63;102029.94;7392253;19;20014;-73
2023/06/22 03:32:43;;;;;;;16.27;13.07;;;;;;;19.00;69.71;102030.91;7393053;19;20018;-73
2023/06/22 03:35:13;;;;;;;17.17;13.60;;;;;;;19.02;69.56;102028.94;7390316;19;20018;-72
2023/06/22 03:37:41;;;;;;;17.77;13.75;;;;;;;19.03;69.65;102035.16;7390802;19;20034;-72
2023/06/22 03:40:09;;;;;;;15.95;12.90;;;;;;;18.98;69.97;102030.19;7392210;19;20026;-73
2023/06/22 03:42:36;;;;;;;17.85;12.93;;;;;;;19.03;69.64;102043.22;7392603;19;20046;-73
2023/06/22 03:45:04;;;;;;;17.38;13.48;;;;;;;19.06;70.01;102045.63;7392934;19;20022;-73
2023/06/22 03:47:32;;;;;;;17.63;13.57;;;;;;;19.02;70.18;102039.69;7391061;19;20018;-64
2023/06/22 03:50:00;;;;;;;17.00;13.60;;;;;;;19.04;69.86;102044.91;7390161;19;20027;-64
2023/06/22 03:52:27;;;;;;;18.77;14.10;;;;;;;18.99;70.02;102048.84;7391794;19;20011;-65
2023/06/22 03:54:54;;;;;;;17.38;14.15;;;;;;;18.95;69.97;102057.31;7390472;19;20015;-64
2023/06/22 03:57:22;;;;;;;17.98;14.93;;;;;;;18.98;69.62;102055.22;7391003;19;20057;-64
2023/06/22 03:59:49;;;;;;;18.50;14.13;;;;;;;18.98;69.79;102057.06;7390573;19;20022;-64
2023/06/22 04:02:16;;;;;;;17.73;14.35;;;;;;;18.99;69.83;102053.38;7391627;19;20022;-64
2023/06/22 04:04:44;;;;;;;17.30;13.07;;;;;;;19.07;69.60;102056.22;7391683;19;20028;-64
2023/06/22 04:07:11;;;;;;;18.25;14.27;;;;;;;19.08;69.75;102055.25;7389779;19;20033;-64
2023/06/22 04:09:38;;;;;;;18.50;14.05;;;;;;;19.06;69.48;102054.53;7391443;19;20074;-65
2023/06/22 04:12:06;;;;;;;19.27;14.90;;;;;;;19.05;69.88;102070.78;7389572;19;20116;-65
2023/06/22 04:14:34;;;;;;;16.83;13.50;;;;;;;19.04;69.79;102061.88;7388665;19;20013;-66
2023/06/22 04:17:01;;;;;;;16.38;13.70;;;;;;;19.04;69.67;102061.00;7389433;19;20355;-66
2023/06/22 04:19:29;;;;;;;18.70;14.63;;;;;;;19.05;70.00;102066.28;7390870;19;20018;-63
2023/06/22 04:21:56;;;;;;;17.92;14.75;;;;;;;19.01;69.77;102064.84;7390760;19;20035;-62
2023/06/22 04:24:23;;;;;;;19.10;14.85;;;;;;;19.04;69.62;102063.69;7391086;19;20584;-63
2023/06/22 04:26:54;;;;;;;17.50;14.30;;;;;;;19.11;69.82;102062.19;7389534;19;20113;-66
2023/06/22 04:29:28;;;;;;;18.52;14.70;;;;;;;19.15;69.43;102063.59;7390988;19;20487;-66
2023/06/22 04:31:58;;;;;;;18.60;15.10;;;;;;;19.14;69.47;102065.44;7389073;19;20022;-61
2023/06/22 04:34:28;;;;;;;18.05;14.77;;;;;;;19.17;69.19;102059.81;7390532;19;20059;-62
2023/06/22 04:36:55;;;;;;;18.63;14.93;;;;;;;19.18;69.46;102057.97;7387857;19;20018;-62
2023/06/22 04:39:23;;;;;;;19.13;14.63;;;;;;;19.15;69.13;102059.06;7390672;19;20022;-62
2023/06/22 04:41:51;;;;;;;18.23;15.70;;;;;;;19.16;69.45;102063.47;7388366;19;20499;-65
2023/06/22 04:44:24;;;;;;;20.90;15.68;;;;;;;19.22;69.13;102065.59;7390603;19;20019;-66
2023/06/22 04:47:01;;;;;;;18.55;15.18;;;;;;;19.27;69.26;102057.16;7388881;19;20023;-64
2023/06/22 04:49:33;;;;;;;19.60;15.93;;;;;;;19.29;69.17;102057.00;7390356;19;20023;-66
2023/06/22 04:52:06;;;;;;;19.00;15.68;;;;;;;19.34;69.33;102062.81;7389977;19;20033;-65
2023/06/22 04:54:35;;;;;;;19.80;16.73;;;;;;;19.34;68.90;102063.63;7389602;19;20082;-64
2023/06/22 04:57:04;;;;;;;19.15;15.95;;;;;;;19.38;68.98;102058.84;7388205;19;20014;-64
2023/06/22 04:59:31;;;;;;;20.40;16.27;;;;;;;19.42;68.63;102054.88;7389625;19;20025;-64
2023/06/22 05:02:00;;;;;;;19.52;16.58;;;;;;;19.40;69.03;102059.56;7389499;19;20412;-64
2023/06/22 05:04:33;;;;;;;20.15;16.15;;;;;;;19.47;69.03;102063.41;7389870;19;20035;-64
2023/06/22 05:07:02;;;;;;;19.93;16.60;;;;;;;19.53;68.75;102068.19;7388408;19;20018;-60
2023/06/22 05:09:30;;;;;;;19.48;17.02;;;;;;;19.49;68.70;102062.25;7388071;19;20445;-59
2023/06/22 05:11:57;;;;;;;21.48;16.50;;;;;;;19.50;69.23;102057.75;7389895;19;20131;-66
2023/06/22 05:14:24;;;;;;;21.27;16.15;;;;;;;19.56;69.22;102042.91;7389308;19;20015;-66
2023/06/22 05:16:52;;;;;;;20.48;16.90;;;;;;;19.64;68.82;102041.22;7386335;19;20397;-66
2023/06/22 05:19:20;;;;;;;19.70;16.35;;;;;;;19.71;68.93;102050.44;7387688;19;20432;-61
2023/06/22 05:21:47;;;;;;;19.63;16.20;;;;;;;19.80;68.43;102047.88;7387459;19;20419;-62
2023/06/22 05:24:15;;;;;;;20.45;16.88;;;;;;;19.76;68.66;102044.63;7387826;19;20022;-61
2023/06/22 05:26:45;;;;;;;20.80;16.83;;;;;;;19.74;69.05;102043.09;7390827;19;20046;-60
2023/06/22 05:29:13;;;;;;;20.92;17.88;;;;;;;19.81;68.90;102049.59;7396568;19;20022;-61
2023/06/22 05:31:41;;;;;;;21.70;18.15;;;;;;;19.92;68.53;102044.09;7395143;19;20022;-61
2023/06/22 05:34:08;;;;;;;21.02;17.48;;;;;;;19.94;68.88;102048.31;7397057;19;20026;-61
2023/06/22 05:36:35;;;;;;;22.35;18.00;;;;;;;19.98;68.75;102040.81;7393209;19;20535;-61
2023/06/22 05:39:12;;;;;;;21.27;18.20;;;;;;;20.00;68.67;102046.91;7395835;19;20116;-59
2023/06/22 05:41:39;;;;;;;22.25;17.52;;;;;;;19.99;68.88;102047.88;7396545;19;20035;-61
2023/06/22 05:44:07;;;;;;;20.48;17.05;;;;;;;20.03;68.88;102043.06;7395110;19;20026;-61
2023/06/22 05:46:34;;;;;;;21.60;17.38;;;;;;;20.06;68.97;102040.09;7393540;19;20022;-60
2023/06/22 05:49:02;;;;;;;20.17;16.38;;;;;;;20.05;68.64;102038.41;7395605;19;20015;-61
2023/06/22 05:51:29;;;;;;;21.70;16.98;;;;;;;20.05;68.52;102041.94;7394197;19;20030;-60
2023/06/22 05:53:56;;;;;;;22.30;18.02;;;;;;;20.07;68.58;102039.09;7393510;19;20018;-60
2023/06/22 05:56:23;;;;;;;19.48;15.80;;;;;;;20.15;68.49;102040.09;7393573;19;20031;-62
2023/06/22 05:58:51;;;;;;;20.42;17.23;;;;;;;20.20;68.60;102039.66;7395294;19;20014;-61
2023/06/22 06:01:18;;;;;;;20.55;16.73;;;;;;;20.13;68.87;102035.84;7396031;19;20104;-61
2023/06/22 06:03:46;;;;;;;20.30;16.40;;;;;;;20.11;68.98;102030.63;7393308;19;20077;-61
2023/06/22 06:06:13;;;;;;;21.45;16.58;;;;;;;20.09;69.31;102027.22;7394402;19;20507;-61
2023/06/22 06:08:41;;;;;;;19.73;16.17;;;;;;;20.09;69.46;102034.44;7393117;19;20015;-61
2023/06/22 06:11:08;;;;;;;20.63;15.90;;;;;;;20.10;69.32;102034.28;7393750;19;20618;-60
2023/06/22 06:13:35;;;;;;;21.17;16.35;;;;;;;20.09;69.03;102037.97;7393081;19;20019;-60
2023/06/22 06:16:04;;;;;;;23.10;17.23;;;;;;;20.08;69.29;102041.66;7392613;19;20029;-59
2023/06/22 06:18:31;;;;;;;20.17;15.60;;;;;;;20.11;69.13;102038.69;7392171;19;20023;-63
2023/06/22 06:20:59;;;;;;;21.35;17.05;;;;;;;20.12;68.93;102042.22;7393096;19;20082;-65
2023/06/22 06:23:26;;;;;;;20.55;16.10;;;;;;;20.14;69.38;102038.38;7394583;19;20082;-65
2023/06/22 06:25:53;;;;;;;21.70;17.15;;;;;;;20.20;69.31;102040.50;7394352;19;20503;-60
2023/06/22 06:28:21;;;;;;;22.40;16.88;;;;;;;20.29;69.10;102033.38;7392613;19;20023;-60
2023/06/22 06:30:49;;;;;;;26.83;19.95;;;;;;;20.35;69.11;102034.66;7394831;19;20448;-62
2023/06/22 06:33:16;;;;;;;20.17;15.50;;;;;;;20.38;69.62;102037.91;7392591;19;20010;-64
2023/06/22 06:35:43;;;;;;;24.58;18.35;;;;;;;20.47;69.48;102029.97;7391436;19;20014;-64
2023/06/22 06:38:10;;;;;;;23.67;18.63;;;;;;;20.55;68.94;102032.78;7388912;19;20112;-65
2023/06/22 06:40:38;;;;;;;21.63;17.90;;;;;;;20.60;68.80;102022.41;7394269;19;20521;-66
2023/06/22 06:43:05;;;;;;;21.90;16.85;;;;;;;20.66;68.68;102022.69;7394403;19;20043;-66
2023/06/22 06:45:34;;;;;;;21.33;17.60;;;;;;;20.72;68.31;102018.56;7394313;19;20178;-66
2023/06/22 06:48:02;;;;;;;21.80;17.15;;;;;;;20.79;68.02;102018.81;7391986;19;20026;-64
2023/06/22 06:50:29;;;;;;;21.38;16.40;;;;;;;20.76;67.88;102024.47;7393716;19;20015;-65
2023/06/22 06:52:59;;;;;;;21.83;16.92;;;;;;;20.77;67.61;102023.50;7393935;19;20018;-66
2023/06/22 06:55:26;;;;;;;20.38;16.08;;;;;;;20.81;67.26;102023.06;7393101;19;20015;-65
2023/06/22 06:57:53;;;;;;;20.48;16.65;;;;;;;20.85;66.75;102027.13;7391730;19;20018;-66
2023/06/22 07:00:21;;;;;;;20.75;15.88;;;;;;;20.89;67.05;102025.00;7393935;19;20015;-68
2023/06/22 07:02:48;;;;;;;20.52;17.08;;;;;;;20.94;67.46;102025.38;7393472;19;20054;-65
2023/06/22 07:05:16;;;;;;;20.92;16.42;;;;;;;21.04;67.73;102036.13;7393115;19;20022;-65
2023/06/22 07:07:43;;;;;;;21.38;16.42;;;;;;;21.07;67.37;102031.28;7391324;19;20018;-65
2023/06/22 07:10:11;;;;;;;20.15;15.45;;;;;;;21.15;66.61;102034.06;7391230;19;20085;-65
2023/06/22 07:12:38;;;;;;;19.73;14.65;;;;;;;21.17;66.48;102023.97;7393229;19;20026;-64
2023/06/22 07:15:08;;;;;;;19.30;14.68;;;;;;;21.16;66.09;102024.97;7393165;19;20022;-67
2023/06/22 07:17:36;;;;;;;19.23;14.30;;;;;;;21.23;66.05;102029.78;7391900;19;20070;-68
2023/06/22 07:20:10;;;;;;;18.67;15.60;;;;;;;21.32;65.91;102037.78;7392970;19;20019;-68
2023/06/22 07:22:42;;;;;;;19.35;15.63;;;;;;;21.32;66.00;102032.38;7392964;19;20022;-71
2023/06/22 07:25:13;;;;;;;20.45;14.02;;;;;;;21.37;66.14;102030.13;7393575;19;20027;-68
2023/06/22 07:27:56;;;;;;;20.85;14.82;;;;;;;21.49;66.69;102025.38;7393981;19;20019;-64
2023/06/22 07:30:23;;;;;;;18.65;14.68;;;;;;;21.56;66.22;102022.88;7392723;19;20085;-64
2023/06/22 07:32:50;;;;;;;17.50;13.88;;;;;;;21.60;66.05;102018.91;7393110;19;20559;-64
2023/06/22 07:35:18;;;;;;;18.85;14.23;;;;;;;21.62;nan;102017.72;7392163;19;20467;-61
2023/06/22 07:37:45;;;;;;;18.05;13.88;;;;;;;21.68;66.48;102024.38;7390262;19;20529;-61
2023/06/22 07:40:13;;;;;;;16.10;12.18;;;;;;;21.72;65.40;102022.22;7392025;19;20126;-60
2023/06/22 07:42:40;;;;;;;17.13;12.60;;;;;;;21.76;65.67;102018.19;7391970;19;20015;-60
2023/06/22 07:45:08;;;;;;;16.02;12.23;;;;;;;21.79;65.38;102017.91;7391415;19;20499;-61
2023/06/22 07:47:35;;;;;;;15.77;12.25;;;;;;;21.83;64.75;102021.97;7390912;19;20023;-61
2023/06/22 07:50:04;;;;;;;15.23;11.38;;;;;;;21.85;64.43;102028.03;7390001;19;20022;-61
2023/06/22 07:52:32;;;;;;;17.20;10.60;;;;;;;21.89;64.50;102014.09;7392013;19;20426;-61
2023/06/22 07:54:59;;;;;;;15.30;10.50;;;;;;;21.96;63.60;102006.22;7391582;19;20019;-60
2023/06/22 07:57:33;;;;;;;14.90;10.70;;;;;;;22.00;63.67;102001.34;7389588;19;20006;-62
2023/06/22 08:00:14;;;;;;;14.57;10.00;;;;;;;22.02;63.68;101999.38;7391378;19;20026;-62
2023/06/22 08:02:44;;;;;;;13.35;9.30;;;;;;;22.10;63.72;102002.97;7391486;19;20026;-61
2023/06/22 08:05:11;;;;;;;13.77;10.10;;;;;;;22.17;62.82;101999.63;7389404;19;20017;-62
2023/06/22 08:07:59;;;;;;;13.88;9.80;;;;;;;22.16;63.33;101992.56;7389526;19;20024;-61
2023/06/22 08:10:27;;;;;;;19.05;9.32;;;;;;;22.23;62.84;101989.06;7390476;19;20455;-62
2023/06/22 08:12:54;;;;;;;14.07;8.20;;;;;;;22.27;61.61;101993.13;7391377;19;20503;-61
2023/06/22 08:15:21;;;;;;;12.52;7.43;;;;;;;22.32;62.36;101993.53;7388887;19;20017;-61
2023/06/22 08:17:49;;;;;;;12.00;7.28;;;;;;;22.39;61.98;101982.91;7387214;19;20052;-61
2023/06/22 08:20:19;;;;;;;10.40;6.47;;;;;;;22.50;61.35;101984.50;7389484;19;20039;-61
2023/06/22 08:22:47;;;;;;;12.52;6.18;;;;;;;22.61;60.33;101976.94;7388451;19;20022;-61
2023/06/22 08:25:14;;;;;;;10.13;6.95;;;;;;;22.71;59.11;101978.69;7390994;19;20018;-62
2023/06/22 08:27:45;;;;;;;9.85;6.55;;;;;;;22.75;58.70;101975.50;7388641;19;20023;-61
2023/06/22 08:30:12;;;;;;;12.00;6.90;;;;;;;22.77;58.63;101973.47;7390637;19;20026;-62
2023/06/22 08:32:40;;;;;;;11.68;5.80;;;;;;;22.86;59.12;101977.06;7388273;19;20038;-62
2023/06/22 08:35:10;;;;;;;9.98;5.93;;;;;;;22.92;57.83;101983.69;7390258;19;20397;-62
2023/06/22 08:37:38;;;;;;;10.07;5.70;;;;;;;22.96;58.73;101980.47;7387326;19;20018;-62
2023/06/22 08:40:09;;;;;;;9.90;5.82;;;;;;;23.09;58.24;101980.88;7390157;19;20073;-61
2023/06/22 08:42:37;;;;;;;8.70;4.95;;;;;;;23.04;57.87;101971.56;7390345;19;20029;-61
2023/06/22 08:45:06;;;;;;;11.45;6.43;;;;;;;23.10;58.06;101977.16;7390254;19;20031;-62
2023/06/22 08:47:33;;;;;;;12.60;6.35;;;;;;;23.09;58.13;101974.63;7388662;19;20083;-62
2023/06/22 08:50:03;;;;;;;10.05;5.68;;;;;;;23.18;57.72;101970.91;7389556;19;20019;-60
2023/06/22 08:52:30;;;;;;;9.65;5.63;;;;;;;23.24;57.90;101958.63;7389596;19;20047;-62
2023/06/22 08:55:00;;;;;;;11.35;6.10;;;;;;;23.24;57.70;101962.16;7387545;19;20334;-61
2023/06/22 08:57:28;;;;;;;10.05;7.00;;;;;;;23.27;57.38;101955.56;7387649;19;20022;-61
2023/06/22 08:59:58;;;;;;;9.68;6.05;;;;;;;23.27;57.02;101956.38;7389096;19;20100;-62
2023/06/22 09:02:30;;;;;;;10.18;5.18;;;;;;;23.26;57.00;101956.56;7394252;19;20033;-62
2023/06/22 09:04:58;;;;;;;10.10;6.13;;;;;;;23.37;57.35;101966.22;7396866;19;20025;-61
2023/06/22 09:07:26;;;;;;;9.45;5.85;;;;;;;23.44;56.78;101961.84;7394993;19;20047;-61
2023/06/22 09:09:53;;;;;;;9.80;5.60;;;;;;;23.48;57.27;101952.38;7394996;19;20491;-61
2023/06/22 09:12:25;;;;;;;10.00;5.18;;;;;;;23.64;56.72;101949.66;7397090;19;20022;-61
2023/06/22 09:14:53;;;;;;;8.02;4.57;;;;;;;23.81;55.71;101945.97;7396711;19;20125;-62
2023/06/22 09:17:21;;;;;;;8.73;5.22;;;;;;;23.97;55.06;101936.97;7394363;19;20026;-61
2023/06/22 09:19:48;;;;;;;10.00;5.28;;;;;;;24.07;54.67;101948.44;7394373;19;20019;-61
2023/06/22 09:22:16;;;;;;;10.68;5.15;;;;;;;24.03;54.04;101944.38;7396816;19;20025;-62
2023/06/22 09:24:43;;;;;;;10.25;5.15;;;;;;;24.06;53.57;101946.75;7396954;19;20018;-61
2023/06/22 09:27:11;;;;;;;7.95;4.82;;;;;;;24.03;53.92;101944.38;7394034;19;20014;-62
2023/06/22 09:29:38;;;;;;;10.13;5.82;;;;;;;24.07;53.34;101945.72;7396626;19;20046;-62
2023/06/22 09:32:06;;;;;;;7.95;5.10;;;;;;;24.05;53.09;101936.97;7396293;19;20033;-61
2023/06/22 09:34:33;;;;;;;9.48;5.70;;;;;;;23.99;53.17;101926.81;7395963;19;20082;-61
2023/06/22 09:37:00;;;;;;;11.43;5.07;;;;;;;23.91;53.64;101923.28;7392082;19;20026;-62
2023/06/22 09:39:28;;;;;;;10.93;5.40;;;;;;;23.91;54.01;101920.59;7395954;19;20018;-61
2023/06/22 09:41:55;;;;;;;9.70;5.47;;;;;;;23.89;54.31;101918.06;7395627;19;20019;-61
2023/06/22 09:44:22;;;;;;;10.25;5.03;;;;;;;23.99;53.58;101917.84;7396350;19;20014;-62
2023/06/22 09:46:50;;;;;;;10.23;5.50;;;;;;;24.05;53.10;101901.78;7392088;19;20033;-62
2023/06/22 09:49:17;;;;;;;7.25;4.20;;;;;;;24.11;53.81;101911.03;7395909;19;20035;-61
2023/06/22 09:51:52;;;;;;;7.43;4.78;;;;;;;24.20;53.29;101909.19;7394539;19;20293;-62
2023/06/22 09:54:19;;;;;;;10.02;5.55;;;;;;;24.19;54.14;101907.47;7395379;19;20015;-61
2023/06/22 09:56:46;;;;;;;9.25;5.75;;;;;;;24.16;54.08;101913.25;7390335;19;20026;-61
2023/06/22 09:59:14;;;;;;;10.40;5.57;;;;;;;24.16;54.30;101911.38;7395735;19;20018;-61
2023/06/22 10:01:45;;;;;;;11.73;6.78;;;;;;;24.22;54.07;101904.41;7395434;19;20018;-62
2023/06/22 10:04:12;;;;;;;11.10;6.00;;;;;;;24.24;54.15;101896.97;7395605;19;20022;-62
2023/06/22 10:06:40;;;;;;;9.38;5.82;;;;;;;24.25;54.47;101887.81;7394674;19;20030;-61
2023/06/22 10:09:08;;;;;;;11.32;6.28;;;;;;;24.30;54.70;101888.97;7394933;19;20015;-60
2023/06/22 10:11:36;;;;;;;11.13;5.93;;;;;;;24.33;54.53;101880.50;7393684;19;20014;-62
2023/06/22 10:14:04;;;;;;;8.73;4.95;;;;;;;24.41;54.85;101890.50;7391758;19;20038;-62
2023/06/22 10:16:32;;;;;;;9.43;4.50;;;;;;;24.49;54.83;101878.78;7393187;19;20018;-61
2023/06/22 10:18:59;;;;;;;10.93;5.00;;;;;;;24.58;54.46;101871.47;7394811;19;20022;-61
2023/06/22 10:21:28;;;;;;;8.18;5.25;;;;;;;24.64;53.92;101874.28;7395812;19;20021;-61
2023/06/22 10:23:55;;;;;;;8.52;5.20;;;;;;;24.70;53.29;101867.34;7394512;19;20045;-60
2023/06/22 10:26:23;;;;;;;8.23;4.80;;;;;;;24.65;53.83;101865.16;7393774;19;20011;-61
2023/06/22 10:28:50;;;;;;;9.35;4.97;;;;;;;24.62;53.54;101870.09;7393977;19;20014;-60
2023/06/22 10:31:33;;;;;;;8.80;4.78;;;;;;;24.59;53.29;101868.56;7394839;19;20018;-61
2023/06/22 10:34:00;;;;;;;8.88;5.15;;;;;;;24.63;53.08;101861.78;7394871;19;20037;-61
2023/06/22 10:36:28;;;;;;;10.98;5.57;;;;;;;24.69;52.57;101868.34;7392852;19;20022;-61
2023/06/22 10:38:55;;;;;;;9.60;5.50;;;;;;;24.64;52.97;101859.91;7394301;19;20030;-62
2023/06/22 10:41:23;;;;;;;8.68;5.03;;;;;;;24.70;52.65;101865.47;7391369;19;20022;-61
2023/06/22 10:43:50;;;;;;;9.05;4.93;;;;;;;24.75;52.88;101862.22;7390271;19;20018;-61
2023/06/22 10:46:17;;;;;;;8.80;4.63;;;;;;;24.94;53.03;101858.19;7390924;19;20085;-60
2023/06/22 10:48:44;;;;;;;9.60;5.22;;;;;;;25.05;52.06;101855.88;7391729;19;20015;-61
2023/06/22 10:51:12;;;;;;;9.23;5.05;;;;;;;25.10;51.33;101852.66;7390525;19;20022;-61
2023/06/22 10:53:39;;;;;;;7.88;5.20;;;;;;;25.10;51.58;101859.94;7391814;19;20054;-61
2023/06/22 10:56:06;;;;;;;8.50;4.95;;;;;;;25.15;51.89;101852.97;7392342;19;20023;-61
2023/06/22 10:58:33;;;;;;;8.45;4.50;;;;;;;25.19;52.02;101848.88;7391647;19;20014;-61
2023/06/22 11:01:02;;;;;;;7.85;4.88;;;;;;;25.27;52.23;101848.81;7389128;19;20049;-60
2023/06/22 11:03:30;;;;;;;8.88;5.00;;;;;;;25.36;51.52;101854.16;7393163;19;20011;-60
2023/06/22 11:05:57;;;;;;;8.98;4.70;;;;;;;25.44;51.31;101859.50;7390293;19;20472;-61
2023/06/22 11:08:24;;;;;;;8.55;4.85;;;;;;;25.53;51.09;101861.94;7391426;19;20014;-61
2023/06/22 11:10:52;;;;;;;7.45;4.53;;;;;;;25.62;50.23;101861.88;7390537;19;20039;-59
2023/06/22 11:13:19;;;;;;;7.93;4.63;;;;;;;25.56;50.71;101865.31;7388140;19;20074;-60
2023/06/22 11:15:47;;;;;;;7.97;4.60;;;;;;;25.54;50.84;101860.06;7390617;19;20032;-61
2023/06/22 11:18:14;;;;;;;7.13;4.40;;;;;;;25.57;50.81;101856.16;7390830;19;20019;-62
2023/06/22 11:20:42;;;;;;;8.52;4.47;;;;;;;25.57;50.54;101853.44;7391794;19;20031;-62
2023/06/22 11:23:09;;;;;;;9.07;4.85;;;;;;;25.61;50.80;101855.59;7391196;19;20031;-63
2023/06/22 11:25:38;;;;;;;8.15;5.13;;;;;;;25.59;50.92;101835.94;7389414;19;20022;-62
2023/06/22 11:28:05;;;;;;;11.38;6.80;;;;;;;25.48;51.96;101844.53;7391543;19;20331;-62
2023/06/22 11:30:33;;;;;;;7.65;4.78;;;;;;;25.37;51.88;101834.97;7392381;19;20037;-61
2023/06/22 11:33:01;;;;;;;7.30;4.53;;;;;;;25.35;51.94;101834.31;7390882;19;20019;-62
2023/06/22 11:35:28;;;;;;;6.35;4.05;;;;;;;25.36;51.75;101827.84;7389526;19;20015;-61
2023/06/22 11:37:56;;;;;;;7.05;4.05;;;;;;;25.45;52.06;101825.91;7390195;19;20018;-61
2023/06/22 11:40:23;;;;;;;8.10;4.43;;;;;;;25.59;51.59;101819.66;7391854;19;20021;-60